createdAt,value
2022-12-09T00:01:45.555Z,99927.31
2022-12-09T00:04:12.389Z,99930.88
2022-12-09T00:06:39.397Z,99936.22
2022-12-09T00:09:06.392Z,99937.44
2022-12-09T00:11:33.356Z,99929.84
2022-12-09T00:14:00.436Z,99937.22
2022-12-09T00:16:27.431Z,99947.09
2022-12-09T00:18:54.256Z,99944.44
2022-12-09T00:21:29.203Z,99936.44
2022-12-09T00:23:58.127Z,99943.81
2022-12-09T00:26:26.557Z,99929.59
2022-12-09T00:28:54.262Z,99932.81
2022-12-09T00:31:24.680Z,99933.59
2022-12-09T00:33:52.740Z,99933.53
2022-12-09T00:36:21.168Z,99939.69
2022-12-09T00:38:49.292Z,99943.25
2022-12-09T00:41:17.075Z,99945.81
2022-12-09T00:43:45.365Z,99940.63
2022-12-09T00:46:12.845Z,99943.31
2022-12-09T00:48:40.675Z,99948.47
2022-12-09T00:51:09.340Z,99947.66
2022-12-09T00:53:36.292Z,99951.22
2022-12-09T00:56:03.181Z,99944.31
2022-12-09T00:58:30.237Z,99942.59
2022-12-09T01:00:56.976Z,99951.38
2022-12-09T01:03:24.268Z,99960.03
2022-12-09T01:05:51.114Z,99959.19
2022-12-09T01:08:18.054Z,99959.28
2022-12-09T01:10:45.884Z,99965.44
2022-12-09T01:13:14.944Z,99963.75
2022-12-09T01:15:42.438Z,99963.03
2022-12-09T01:18:10.713Z,99967.47
2022-12-09T01:20:37.468Z,99968.38
2022-12-09T01:23:04.523Z,99968.38
2022-12-09T01:25:31.331Z,99970.19
2022-12-09T01:27:58.586Z,99972.81
2022-12-09T01:30:25.454Z,99962.38
2022-12-09T01:32:52.505Z,99963.16
2022-12-09T01:35:20.657Z,99957.88
2022-12-09T01:37:47.478Z,99964.78
2022-12-09T01:40:17.094Z,99962.38
2022-12-09T01:42:44.262Z,99964.97
2022-12-09T01:45:20.713Z,99964.34
2022-12-09T01:47:52.802Z,99965.63
2022-12-09T01:50:20.104Z,99957.75
2022-12-09T01:52:48.171Z,99964.63
2022-12-09T01:55:15.080Z,99965.31
2022-12-09T01:57:42.979Z,99968.66
2022-12-09T02:00:10.822Z,99960.53
2022-12-09T02:02:46.862Z,99969.16
2022-12-09T02:05:16.129Z,99961.03
2022-12-09T02:07:47.089Z,99960.16
2022-12-09T02:10:16.806Z,99962.69
2022-12-09T02:13:27.471Z,99957.16
2022-12-09T02:15:58.063Z,99968.31
2022-12-09T02:18:38.553Z,99965.88
2022-12-09T02:21:15.442Z,99966.75
2022-12-09T02:24:27.002Z,99963.44
2022-12-09T02:26:57.104Z,99953.50
2022-12-09T02:29:36.792Z,99953.38
2022-12-09T02:32:22.272Z,99959.56
2022-12-09T02:35:00.832Z,99951.88
2022-12-09T02:37:36.982Z,99952.72
2022-12-09T02:40:12.235Z,99959.94
2022-12-09T02:42:42.718Z,99946.41
2022-12-09T02:45:11.102Z,99952.25
2022-12-09T02:47:44.719Z,99949.47
2022-12-09T02:50:16.176Z,99951.88
2022-12-09T02:52:43.979Z,99953.53
2022-12-09T02:55:14.996Z,99960.50
2022-12-09T02:57:41.822Z,99952.72
2022-12-09T03:00:14.310Z,99951.88
2022-12-09T03:02:44.880Z,99952.81
2022-12-09T03:05:34.261Z,99948.50
2022-12-09T03:08:15.278Z,99940.66
2022-12-09T03:10:53.469Z,99946.75
2022-12-09T03:13:33.359Z,99952.19
2022-12-09T03:16:08.713Z,99954.34
2022-12-09T03:18:38.067Z,99955.81
2022-12-09T03:21:06.012Z,99955.44
2022-12-09T03:23:34.525Z,99949.88
2022-12-09T03:26:02.153Z,99957.50
2022-12-09T03:28:37.724Z,99957.44
2022-12-09T03:31:07.957Z,99956.59
2022-12-09T03:33:34.746Z,99958.31
2022-12-09T03:36:04.922Z,99954.66
2022-12-09T03:38:35.959Z,99954.66
2022-12-09T03:41:29.135Z,99950.25
2022-12-09T03:44:19.313Z,99951.13
2022-12-09T03:46:46.611Z,99957.19
2022-12-09T03:49:14.164Z,99952.81
2022-12-09T03:51:48.353Z,99953.53
2022-12-09T03:54:24.603Z,99941.31
2022-12-09T03:56:58.431Z,99946.38
2022-12-09T03:59:29.983Z,99945.38
2022-12-09T04:01:57.161Z,99941.06
2022-12-09T04:04:24.358Z,99946.28
2022-12-09T04:06:53.083Z,99950.88
2022-12-09T04:09:20.003Z,99944.69
2022-12-09T04:11:46.970Z,99953.19
2022-12-09T04:14:15.835Z,99951.41
2022-12-09T04:16:44.305Z,99932.22
2022-12-09T04:19:11.120Z,99935.72
2022-12-09T04:21:37.961Z,99929.66
2022-12-09T04:24:05.016Z,99933.97
2022-12-09T04:26:31.737Z,99926.94
2022-12-09T04:28:58.802Z,99935.44
2022-12-09T04:31:25.788Z,99938.94
2022-12-09T04:33:52.796Z,99938.16
2022-12-09T04:36:23.087Z,99938.91
2022-12-09T04:38:54.287Z,99944.13
2022-12-09T04:41:21.506Z,99931.06
2022-12-09T04:43:49.202Z,99933.66
2022-12-09T04:46:19.576Z,99932.78
2022-12-09T04:48:46.433Z,99928.38
2022-12-09T04:51:15.504Z,99943.22
2022-12-09T04:53:42.702Z,99942.28
2022-12-09T04:56:14.091Z,99939.53
2022-12-09T04:58:41.752Z,99944.78
2022-12-09T05:01:10.096Z,99940.50
2022-12-09T05:03:37.848Z,99941.44
2022-12-09T05:06:09.499Z,99942.28
2022-12-09T05:08:36.869Z,99941.50
2022-12-09T05:11:04.872Z,99951.00
2022-12-09T05:13:32.055Z,99944.06
2022-12-09T05:16:15.397Z,99947.75
2022-12-09T05:18:43.976Z,99942.50
2022-12-09T05:21:13.753Z,99949.41
2022-12-09T05:23:40.693Z,99939.91
2022-12-09T05:26:11.875Z,99943.22
2022-12-09T05:28:38.979Z,99945.88
2022-12-09T05:31:08.574Z,99946.69
2022-12-09T05:33:35.947Z,99944.13
2022-12-09T05:36:03.214Z,99938.06
2022-12-09T05:38:30.768Z,99941.50
2022-12-09T05:41:00.549Z,99937.94
2022-12-09T05:43:27.735Z,99939.78
2022-12-09T05:45:55.091Z,99946.84
2022-12-09T05:48:22.109Z,99941.63
2022-12-09T05:51:18.151Z,99946.84
2022-12-09T05:53:45.060Z,99942.47
2022-12-09T05:56:16.169Z,99941.63
2022-12-09T05:58:43.257Z,99939.00
2022-12-09T06:01:10.303Z,99942.47
2022-12-09T06:03:37.796Z,99942.50
2022-12-09T06:06:07.332Z,99946.78
2022-12-09T06:08:34.282Z,99946.00
2022-12-09T06:11:01.662Z,99944.22
2022-12-09T06:13:28.637Z,99940.78
2022-12-09T06:15:56.034Z,99948.69
2022-12-09T06:18:22.954Z,99942.56
2022-12-09T06:20:49.732Z,99951.25
2022-12-09T06:23:16.607Z,99944.28
2022-12-09T06:25:45.222Z,99948.69
2022-12-09T06:28:12.422Z,99947.84
2022-12-09T06:30:39.588Z,99950.47
2022-12-09T06:33:22.869Z,99960.00
2022-12-09T06:35:53.519Z,99962.75
2022-12-09T06:38:20.318Z,99967.19
2022-12-09T06:40:47.261Z,99958.44
2022-12-09T06:43:13.996Z,99959.34
2022-12-09T06:45:41.137Z,99967.19
2022-12-09T06:48:07.886Z,99966.31
2022-12-09T06:50:35.534Z,99967.19
2022-12-09T06:53:02.492Z,99970.69
2022-12-09T06:55:29.339Z,99975.88
2022-12-09T06:57:58.156Z,99972.50
2022-12-09T07:00:25.912Z,99981.22
2022-12-09T07:02:53.645Z,99970.88
2022-12-09T07:05:20.707Z,99975.25
2022-12-09T07:07:52.304Z,99979.66
2022-12-09T07:10:19.882Z,99987.59
2022-12-09T07:12:47.031Z,99978.19
2022-12-09T07:15:14.714Z,99979.16
2022-12-09T07:17:42.174Z,99974.78
2022-12-09T07:20:09.587Z,99978.38
2022-12-09T07:22:36.559Z,99980.16
2022-12-09T07:25:03.626Z,99979.88
2022-12-09T07:27:30.965Z,99980.88
2022-12-09T07:29:58.441Z,99981.72
2022-12-09T07:32:25.809Z,99980.03
2022-12-09T07:34:53.333Z,99973.09
2022-12-09T07:37:20.167Z,99986.81
2022-12-09T07:39:46.831Z,99985.03
2022-12-09T07:42:13.954Z,99990.25
2022-12-09T07:44:51.652Z,100001.56
2022-12-09T07:47:18.923Z,99992.94
2022-12-09T07:49:46.047Z,99990.34
2022-12-09T07:52:14.072Z,99983.31
2022-12-09T07:54:41.291Z,99986.78
2022-12-09T07:57:08.178Z,99992.88
2022-12-09T07:59:35.017Z,99986.72
2022-12-09T08:02:06.500Z,99986.72
2022-12-09T08:04:35.676Z,99995.34
2022-12-09T08:07:03.507Z,99991.78
2022-12-09T08:09:30.571Z,99988.28
2022-12-09T08:11:58.384Z,99991.72
2022-12-09T08:14:25.354Z,99998.63
2022-12-09T08:16:52.555Z,99989.97
2022-12-09T08:19:20.232Z,99990.78
2022-12-09T08:21:52.885Z,99999.44
2022-12-09T08:24:21.297Z,99998.53
2022-12-09T08:26:50.782Z,100002.03
2022-12-09T08:29:18.426Z,99998.56
2022-12-09T08:31:45.656Z,99995.94
2022-12-09T08:34:14.227Z,99994.09
2022-12-09T08:36:42.334Z,99986.22
2022-12-09T08:39:10.051Z,99985.31
2022-12-09T08:41:38.876Z,99990.41
2022-12-09T08:44:09.611Z,99992.94
2022-12-09T09:01:17.994Z,100001.47
2022-12-09T09:20:48.286Z,100014.19
2022-12-09T09:30:49.610Z,100002.06
2022-12-09T09:36:27.878Z,100013.16
2022-12-09T09:38:55.977Z,100007.03
2022-12-09T09:41:46.349Z,100016.56
2022-12-09T09:45:06.202Z,100012.09
2022-12-09T09:51:27.329Z,100002.25
2022-12-09T09:54:50.158Z,100007.00
2022-12-09T09:58:17.030Z,100008.94
2022-12-09T10:09:14.410Z,100011.66
2022-12-09T10:12:20.217Z,100010.91
2022-12-09T10:18:55.308Z,100006.22
2022-12-09T10:21:31.480Z,99995.66
2022-12-09T10:24:24.198Z,99986.97
2022-12-09T10:27:19.902Z,99990.28
2022-12-09T10:30:44.616Z,99988.09
2022-12-09T10:37:42.257Z,99981.41
2022-12-09T10:52:19.001Z,99985.75
2022-12-09T10:54:52.999Z,99986.44
2022-12-09T10:57:31.293Z,99987.66
2022-12-09T11:09:29.223Z,99967.69
2022-12-09T11:12:25.946Z,99966.44
2022-12-09T11:15:13.020Z,99971.94
2022-12-09T11:18:08.978Z,99962.72
2022-12-09T11:20:45.516Z,99966.63
2022-12-09T11:23:26.262Z,99973.59
2022-12-09T11:26:01.884Z,99968.25
2022-12-09T11:28:46.001Z,99963.78
2022-12-09T11:31:33.022Z,99962.22
2022-12-09T11:34:42.958Z,99968.19
2022-12-09T11:37:17.090Z,99962.00
2022-12-09T11:43:13.524Z,99962.06
2022-12-09T11:50:18.996Z,99953.97
2022-12-09T11:58:02.154Z,99957.31
2022-12-09T12:00:56.548Z,99951.75
2022-12-09T12:08:01.636Z,99950.03
2022-12-09T12:25:17.636Z,99953.56
2022-12-09T12:29:00.065Z,99949.66
2022-12-09T12:35:23.027Z,99945.22
2022-12-09T12:38:16.404Z,99947.16
2022-12-09T12:41:37.693Z,99942.03
2022-12-09T12:49:03.675Z,99933.81
2022-12-09T13:02:59.967Z,99923.88
2022-12-09T13:07:02.830Z,99925.47
2022-12-09T13:14:36.398Z,99920.66
2022-12-09T13:21:27.085Z,99921.22
2022-12-09T13:24:28.919Z,99914.78
2022-12-09T13:27:10.537Z,99934.19
2022-12-09T13:30:16.690Z,99932.59
2022-12-09T13:36:14.915Z,99933.72
2022-12-09T13:38:50.232Z,99937.09
2022-12-09T13:42:05.231Z,99931.75
2022-12-09T13:45:25.615Z,99917.47
2022-12-09T13:52:11.926Z,99921.22
2022-12-09T13:54:47.482Z,99931.56
2022-12-09T13:57:28.294Z,99929.78
2022-12-09T13:59:55.211Z,99935.19
2022-12-09T14:02:35.277Z,99931.50
2022-12-09T14:05:04.993Z,99941.13
2022-12-09T14:07:50.428Z,99944.56
2022-12-09T14:10:39.696Z,99943.22
2022-12-09T14:13:24.200Z,99947.50
2022-12-09T14:16:13.948Z,99948.25
2022-12-09T14:18:41.447Z,99944.69
2022-12-09T14:21:23.309Z,99947.59
2022-12-09T14:24:08.902Z,99952.13
2022-12-09T14:26:43.945Z,99952.06
2022-12-09T14:29:10.931Z,99961.75
2022-12-09T14:31:44.823Z,99960.06
2022-12-09T14:34:26.274Z,99955.63
2022-12-09T14:37:04.943Z,99954.59
2022-12-09T14:39:37.970Z,99950.16
2022-12-09T14:42:10.025Z,99952.13
2022-12-09T14:44:48.067Z,99948.63
2022-12-09T14:47:27.192Z,99943.56
2022-12-09T14:49:55.937Z,99939.47
2022-12-09T14:52:25.587Z,99939.84
2022-12-09T14:54:53.389Z,99938.16
2022-12-09T14:57:28.438Z,99942.56
2022-12-09T14:59:56.470Z,99943.84
2022-12-09T15:02:25.828Z,99935.19
2022-12-09T15:04:53.943Z,99934.25
2022-12-09T15:07:27.366Z,99942.97
2022-12-09T15:10:01.623Z,99934.84
2022-12-09T15:12:32.668Z,99944.06
2022-12-09T15:15:25.043Z,99939.59
2022-12-09T15:18:01.322Z,99940.47
2022-12-09T15:20:39.639Z,99939.66
2022-12-09T15:23:22.948Z,99942.94
2022-12-09T15:26:03.924Z,99944.94
2022-12-09T15:28:33.247Z,99952.63
2022-12-09T15:31:21.443Z,99953.78
2022-12-09T15:33:50.858Z,99956.03
2022-12-09T15:36:33.151Z,99955.88
2022-12-09T15:39:05.360Z,99960.13
2022-12-09T15:41:57.504Z,99970.53
2022-12-09T15:44:25.455Z,99960.88
2022-12-09T15:46:55.589Z,99972.03
2022-12-09T15:49:27.408Z,99971.97
2022-12-09T15:51:56.145Z,99967.16
2022-12-09T15:54:28.408Z,99958.09
2022-12-09T15:57:00.626Z,99954.41
2022-12-09T15:59:38.764Z,99964.09
2022-12-09T16:02:05.960Z,99947.78
2022-12-09T16:04:37.339Z,99950.56
2022-12-09T16:07:06.197Z,99947.13
2022-12-09T16:09:33.077Z,99958.53
2022-12-09T16:12:00.094Z,99965.50
2022-12-09T16:14:27.023Z,99967.19
2022-12-09T16:17:02.054Z,99968.03
2022-12-09T16:19:31.777Z,99970.66
2022-12-09T16:22:05.305Z,99971.66
2022-12-09T16:24:51.119Z,99976.97
2022-12-09T16:27:23.161Z,99966.44
2022-12-09T16:29:52.438Z,99966.56
2022-12-09T16:32:23.765Z,99971.13
2022-12-09T16:34:56.436Z,99966.03
2022-12-09T16:37:23.076Z,99965.13
2022-12-09T16:39:49.886Z,99967.81
2022-12-09T16:42:23.663Z,99977.44
2022-12-09T16:44:50.381Z,99971.38
2022-12-09T16:47:19.484Z,99973.16
2022-12-09T16:49:47.690Z,99966.31
2022-12-09T16:52:23.819Z,99971.44
2022-12-09T16:54:51.744Z,99974.53
2022-12-09T16:57:19.815Z,99974.66
2022-12-09T16:59:46.695Z,99975.81
2022-12-09T17:02:26.728Z,99971.53
2022-12-09T17:04:53.497Z,99972.44
2022-12-09T17:07:20.446Z,99974.09
2022-12-09T17:09:47.222Z,99967.09
2022-12-09T17:12:13.882Z,99960.13
2022-12-09T17:14:40.611Z,99958.44
2022-12-09T17:17:07.346Z,99966.09
2022-12-09T17:19:34.149Z,99964.31
2022-12-09T17:22:00.912Z,99963.81
2022-12-09T17:24:27.654Z,99962.25
2022-12-09T17:26:54.322Z,99969.88
2022-12-09T17:29:21.139Z,99961.03
2022-12-09T17:31:49.831Z,99961.09
2022-12-09T17:34:16.677Z,99961.97
2022-12-09T17:36:43.463Z,99956.75
2022-12-09T17:39:12.825Z,99965.75
2022-12-09T17:41:39.808Z,99962.25
2022-12-09T17:44:06.990Z,99969.06
2022-12-09T17:46:34.194Z,99967.53
2022-12-09T17:49:01.816Z,99963.72
2022-12-09T17:51:35.366Z,99964.44
2022-12-09T17:54:03.420Z,99971.25
2022-12-09T17:56:30.117Z,99965.94
2022-12-09T17:59:02.921Z,99962.53
2022-12-09T18:01:30.438Z,99959.81
2022-12-09T18:04:02.860Z,99970.22
2022-12-09T18:06:34.923Z,99973.88
2022-12-09T18:09:03.439Z,99979.72
2022-12-09T18:11:30.259Z,99978.03
2022-12-09T18:13:56.976Z,99973.16
2022-12-09T18:16:23.818Z,99977.56
2022-12-09T18:18:50.720Z,99985.97
2022-12-09T18:21:19.811Z,99986.44
2022-12-09T18:23:48.336Z,99989.38
2022-12-09T18:26:17.427Z,99981.16
2022-12-09T18:28:44.321Z,99997.56
2022-12-09T18:31:14.017Z,99989.47
2022-12-09T18:33:41.534Z,99988.53
2022-12-09T18:36:16.754Z,99997.97
2022-12-09T18:38:43.754Z,99989.25
2022-12-09T18:41:18.114Z,99994.31
2022-12-09T18:43:46.439Z,99993.47
2022-12-09T18:46:22.639Z,99995.94
2022-12-09T18:49:00.101Z,100001.19
2022-12-09T18:51:27.790Z,99996.78
2022-12-09T18:53:54.761Z,99999.72
2022-12-09T18:56:21.476Z,100006.66
2022-12-09T19:01:39.979Z,100006.22
2022-12-09T19:04:11.081Z,100001.09
2022-12-09T19:06:39.550Z,100007.88
2022-12-09T19:09:09.262Z,100009.03
2022-12-09T19:11:37.966Z,100003.41
2022-12-09T19:14:06.377Z,100008.25
2022-12-09T19:16:33.687Z,100010.59
2022-12-09T19:19:07.256Z,100019.16
2022-12-09T19:21:35.741Z,100015.25
2022-12-09T19:24:02.425Z,100022.53
2022-12-09T19:26:31.648Z,100029.19
2022-12-09T19:29:04.614Z,100026.94
2022-12-09T19:31:37.708Z,100031.16
2022-12-09T19:34:15.484Z,100023.19
2022-12-09T19:36:42.740Z,100026.78
2022-12-09T19:39:10.541Z,100034.41
2022-12-09T19:41:37.991Z,100032.38
2022-12-09T19:44:05.464Z,100033.94
2022-12-09T19:46:33.237Z,100026.44
2022-12-09T19:52:10.174Z,100026.44
2022-12-09T19:58:46.540Z,100023.88
2022-12-09T20:08:59.896Z,100019.69
2022-12-09T20:15:27.519Z,100019.50
2022-12-09T20:25:34.929Z,100026.16
2022-12-09T20:34:52.893Z,100020.44
2022-12-09T20:58:53.912Z,100029.94
2022-12-09T22:31:27.641Z,100047.59
2022-12-09T22:34:27.616Z,100044.00
2022-12-09T22:36:57.364Z,100036.91
2022-12-09T22:39:33.303Z,100042.31
2022-12-09T22:42:09.016Z,100035.13
2022-12-09T22:44:36.567Z,100041.47
2022-12-09T22:50:45.557Z,100035.28
2022-12-09T22:53:34.186Z,100038.88
2022-12-09T22:56:19.702Z,100037.91
2022-12-09T22:59:42.890Z,100038.00
2022-12-09T23:05:54.139Z,100046.38
2022-12-09T23:08:52.291Z,100031.66
2022-12-09T23:11:34.591Z,100034.56
2022-12-09T23:14:23.334Z,100036.22
2022-12-09T23:24:54.025Z,100049.50
2022-12-09T23:27:22.149Z,100044.56
2022-12-09T23:30:10.274Z,100040.19
2022-12-09T23:35:57.303Z,100047.88
2022-12-09T23:38:27.794Z,100048.50
2022-12-09T23:41:15.643Z,100046.00
2022-12-09T23:51:12.884Z,100055.28
2022-12-09T23:54:34.023Z,100051.78
2022-12-09T23:57:52.228Z,100049.88
